Time;durP1;ratioP1;P1;durP2;ratioP2;P2;SDS_P1;SDS_P2;PMS_P1;PMS_P2;Temp;Humidity;BMP_temperature;BMP_pressure;BME280_temperature;BME280_humidity;BME280_pressure;Samples;Min_cycle;Max_cycle;Signal;HPM_P1;HPM_P2
2023/07/13 00:01:38;;;;;;;0.77;0.70;;;22.80;53.20;23.00;100316.00;;;;4967290;28;111003;-66
2023/07/13 00:04:04;;;;;;;1.08;0.60;;;22.80;53.30;23.00;100320.00;;;;4972803;28;88367;-65
2023/07/13 00:06:32;;;;;;;1.33;0.52;;;22.80;53.40;23.00;100320.00;;;;4966976;28;116810;-67
2023/07/13 00:08:59;;;;;;;0.70;0.65;;;22.80;54.00;22.90;100311.00;;;;4968489;28;88804;-67
2023/07/13 00:11:25;;;;;;;2.15;0.75;;;22.70;53.50;22.90;100298.00;;;;4966548;28;87999;-66
2023/07/13 00:13:51;;;;;;;0.40;0.40;;;22.70;53.70;22.90;100307.00;;;;4964566;28;100640;-66
2023/07/13 00:16:18;;;;;;;0.93;0.60;;;22.70;54.00;22.80;100309.00;;;;4968508;28;89409;-66
2023/07/13 00:18:45;;;;;;;0.60;0.47;;;22.60;54.10;22.70;100304.00;;;;4967913;28;89485;-66
2023/07/13 00:21:11;;;;;;;0.93;0.50;;;22.60;54.30;22.70;100291.00;;;;4972271;28;92236;-66
2023/07/13 00:23:40;;;;;;;1.00;0.80;;;22.50;54.40;22.70;100292.00;;;;4972904;28;87948;-66
2023/07/13 00:26:10;;;;;;;0.65;0.47;;;22.50;54.60;22.60;100290.00;;;;4964875;28;106555;-66
2023/07/13 00:28:37;;;;;;;0.63;0.52;;;22.50;54.80;22.60;100285.00;;;;4969211;28;87950;-67
2023/07/13 00:31:02;;;;;;;1.75;0.88;;;22.40;55.00;22.50;100276.00;;;;4968559;28;110047;-68
2023/07/13 00:33:29;;;;;;;1.63;1.00;;;22.40;55.30;22.40;100265.00;;;;4970396;28;86955;-67
2023/07/13 00:36:01;;;;;;;2.10;0.95;;;22.30;55.70;22.30;100265.00;;;;4966356;28;118874;-66
2023/07/13 00:38:26;;;;;;;1.48;1.00;;;22.20;55.80;22.20;100272.00;;;;4971577;28;87945;-66
2023/07/13 00:40:52;;;;;;;1.33;0.90;;;22.10;56.00;22.10;100288.00;;;;4965416;28;111375;-66
2023/07/13 00:43:21;;;;;;;0.60;0.60;;;21.90;56.00;22.00;100308.00;;;;4965806;28;89943;-66
2023/07/13 00:45:47;;;;;;;0.55;0.55;;;21.80;56.20;21.90;100316.00;;;;4968094;28;88495;-66
2023/07/13 00:48:19;;;;;;;1.63;0.63;;;21.80;56.40;21.90;100332.00;;;;4965396;28;88194;-66
2023/07/13 00:50:49;;;;;;;0.82;0.82;;;21.70;56.60;21.80;100330.00;;;;4964534;28;87856;-66
2023/07/13 00:53:36;;;;;;;1.50;1.08;;;21.70;56.70;21.80;100319.00;;;;4966385;28;88536;-65
2023/07/13 00:56:02;;;;;;;0.93;0.70;;;21.60;57.10;21.70;100312.00;;;;4983899;28;88057;-66
2023/07/13 00:58:29;;;;;;;1.95;0.75;;;21.60;57.10;21.70;100313.00;;;;4970410;28;89048;-66
2023/07/13 01:00:54;;;;;;;2.92;0.85;;;21.50;57.30;21.60;100309.00;;;;4969564;28;88492;-66
2023/07/13 01:03:20;;;;;;;0.95;0.50;;;21.50;57.40;21.60;100323.00;;;;4966240;28;108455;-66
2023/07/13 01:05:49;;;;;;;1.00;0.70;;;21.40;57.40;21.60;100312.00;;;;4965495;28;118891;-66
2023/07/13 01:08:15;;;;;;;0.75;0.63;;;21.40;57.50;21.60;100317.00;;;;4971718;28;120009;-67
2023/07/13 01:10:54;;;;;;;0.80;0.77;;;21.40;57.50;21.60;100312.00;;;;4971579;28;110099;-67
2023/07/13 01:13:19;;;;;;;0.95;0.80;;;21.40;57.50;21.60;100318.00;;;;4965509;28;88305;-67
2023/07/13 01:15:49;;;;;;;1.45;1.23;;;21.50;57.50;21.70;100331.00;;;;4965743;28;116531;-66
2023/07/13 01:18:20;;;;;;;1.35;1.13;;;21.50;57.60;21.70;100337.00;;;;4967153;28;87683;-65
2023/07/13 01:20:55;;;;;;;1.08;0.75;;;21.50;57.70;21.70;100341.00;;;;4967069;28;100405;-65
2023/07/13 01:23:21;;;;;;;2.17;1.10;;;21.50;57.90;21.70;100330.00;;;;4968831;28;87234;-65
2023/07/13 01:25:47;;;;;;;1.25;0.68;;;21.50;58.00;21.70;100336.00;;;;4966087;28;88131;-66
2023/07/13 01:28:14;;;;;;;0.60;0.50;;;21.50;58.00;21.60;100336.00;;;;4966190;28;88386;-66
2023/07/13 01:30:40;;;;;;;1.05;1.05;;;21.50;58.00;21.60;100337.00;;;;4967377;28;88676;-66
2023/07/13 01:33:07;;;;;;;1.23;1.08;;;21.40;58.10;21.60;100340.00;;;;4967364;28;88090;-66
2023/07/13 01:35:33;;;;;;;1.23;0.77;;;21.40;58.10;21.50;100351.00;;;;4968054;28;100178;-66
2023/07/13 01:38:01;;;;;;;0.85;0.63;;;21.40;58.00;21.50;100335.00;;;;4965022;28;112677;-66
2023/07/13 01:40:28;;;;;;;0.80;0.80;;;21.30;58.00;21.50;100331.00;;;;4962210;28;87784;-67
2023/07/13 01:42:53;;;;;;;5.18;1.55;;;21.30;57.90;21.50;100332.00;;;;4967069;28;88019;-66
2023/07/13 01:45:19;;;;;;;0.88;0.80;;;21.30;57.90;21.50;100319.00;;;;4971627;28;116854;-65
2023/07/13 01:47:45;;;;;;;0.70;0.57;;;21.30;57.90;21.50;100321.00;;;;4969584;28;88666;-65
2023/07/13 01:50:10;;;;;;;1.20;0.82;;;21.30;57.80;21.50;100317.00;;;;4972545;28;110087;-65
2023/07/13 01:52:36;;;;;;;0.60;0.60;;;21.30;57.90;21.50;100307.00;;;;4967383;28;109274;-65
2023/07/13 01:55:02;;;;;;;0.63;0.63;;;21.30;57.80;21.40;100306.00;;;;4972755;28;89488;-65
2023/07/13 01:57:28;;;;;;;1.85;1.20;;;21.30;58.00;21.40;100303.00;;;;4971275;28;106148;-65
2023/07/13 01:59:54;;;;;;;3.60;1.27;;;21.20;58.00;21.40;100309.00;;;;4968930;28;110496;-65
2023/07/13 02:02:20;;;;;;;1.15;0.73;;;21.20;58.00;21.30;100318.00;;;;4972284;28;108953;-65
2023/07/13 02:04:45;;;;;;;1.02;0.80;;;21.10;58.20;21.30;100317.00;;;;4967660;28;117586;-65
2023/07/13 02:07:11;;;;;;;0.40;0.40;;;21.10;58.40;21.20;100319.00;;;;4968428;28;116116;-65
2023/07/13 02:09:37;;;;;;;1.45;0.75;;;21.00;58.50;21.20;100320.00;;;;4971380;28;111135;-65
2023/07/13 02:12:03;;;;;;;1.20;0.80;;;21.10;58.60;21.10;100307.00;;;;4969258;28;107982;-65
2023/07/13 02:14:28;;;;;;;0.95;0.70;;;21.00;58.60;21.10;100301.00;;;;4970884;28;104374;-66
2023/07/13 02:16:54;;;;;;;1.90;0.98;;;21.00;58.70;21.00;100295.00;;;;4972226;28;117446;-66
2023/07/13 02:19:20;;;;;;;0.70;0.70;;;20.90;58.70;21.00;100306.00;;;;4968044;28;109961;-66
2023/07/13 02:21:46;;;;;;;1.65;1.08;;;20.90;58.90;20.90;100304.00;;;;4968447;28;109325;-65
2023/07/13 02:24:17;;;;;;;2.08;0.93;;;20.70;58.90;20.80;100308.00;;;;4970841;28;117956;-66
2023/07/13 02:26:44;;;;;;;1.25;1.02;;;20.70;59.00;20.70;100311.00;;;;4970972;28;87760;-66
2023/07/13 02:29:10;;;;;;;1.30;1.00;;;20.60;59.20;20.70;100312.00;;;;4972084;28;87871;-66
2023/07/13 02:31:35;;;;;;;1.83;1.30;;;20.60;59.30;20.70;100312.00;;;;4970728;28;88120;-66
2023/07/13 02:34:02;;;;;;;1.27;1.17;;;20.50;59.40;20.60;100313.00;;;;4969840;28;87725;-65
2023/07/13 02:36:28;;;;;;;1.17;0.95;;;20.50;59.70;20.60;100321.00;;;;4969639;28;88585;-65
2023/07/13 02:38:54;;;;;;;0.73;0.60;;;20.50;59.90;20.60;100317.00;;;;4971224;28;99451;-65
2023/07/13 02:41:19;;;;;;;1.20;1.10;;;20.50;60.00;20.60;100317.00;;;;4968571;28;101365;-65
2023/07/13 02:43:48;;;;;;;2.20;1.27;;;20.50;60.30;20.60;100318.00;;;;4967326;28;118178;-66
2023/07/13 02:46:14;;;;;;;0.85;0.85;;;20.40;60.60;20.60;100333.00;;;;4971322;28;96721;-66
2023/07/13 02:48:40;;;;;;;0.70;0.70;;;20.40;60.70;20.60;100316.00;;;;4969482;28;90248;-66
2023/07/13 02:51:08;;;;;;;2.25;1.45;;;20.40;61.00;20.60;100322.00;;;;4969795;28;108622;-66
2023/07/13 02:53:35;;;;;;;0.93;0.93;;;20.40;61.40;20.50;100330.00;;;;4970155;28;87974;-66
2023/07/13 02:56:00;;;;;;;4.43;1.10;;;20.40;61.50;20.50;100338.00;;;;4972571;28;87837;-66
2023/07/13 02:58:26;;;;;;;2.35;1.25;;;20.30;61.50;20.50;100335.00;;;;4969974;28;108867;-66
2023/07/13 03:00:52;;;;;;;0.73;0.70;;;20.30;61.70;20.50;100338.00;;;;4971335;28;108956;-66
2023/07/13 03:03:18;;;;;;;0.88;0.80;;;20.30;61.90;20.50;100343.00;;;;4970626;28;118029;-66
2023/07/13 03:05:49;;;;;;;0.90;0.90;;;20.30;62.00;20.50;100346.00;;;;4968926;28;88123;-65
2023/07/13 03:08:15;;;;;;;0.93;0.80;;;20.30;62.10;20.40;100350.00;;;;4970399;28;89562;-65
2023/07/13 03:10:41;;;;;;;1.20;0.90;;;20.30;62.10;20.40;100342.00;;;;4974044;28;100325;-65
2023/07/13 03:13:06;;;;;;;0.80;0.70;;;20.30;62.20;20.40;100340.00;;;;4968670;28;118548;-65
2023/07/13 03:15:32;;;;;;;1.63;1.02;;;20.30;62.30;20.40;100347.00;;;;4970413;28;118190;-65
2023/07/13 03:17:58;;;;;;;1.20;1.02;;;20.20;62.30;20.30;100347.00;;;;4969084;28;109992;-65
2023/07/13 03:20:23;;;;;;;1.25;1.00;;;20.20;62.50;20.20;100359.00;;;;4970342;28;107704;-66
2023/07/13 03:22:49;;;;;;;0.77;0.77;;;20.10;62.70;20.20;100362.00;;;;4970561;28;117803;-66
2023/07/13 03:25:15;;;;;;;2.97;0.88;;;20.10;62.90;20.10;100360.00;;;;4966863;28;116721;-67
2023/07/13 03:27:40;;;;;;;1.23;1.13;;;20.00;63.00;20.10;100357.00;;;;4972515;28;87769;-66
2023/07/13 03:30:07;;;;;;;0.75;0.75;;;20.00;63.30;20.00;100355.00;;;;4968319;28;108994;-66
2023/07/13 03:32:33;;;;;;;0.80;0.70;;;19.90;63.60;20.00;100356.00;;;;4971646;28;109664;-67
2023/07/13 03:34:58;;;;;;;1.60;0.90;;;19.90;64.00;20.00;100358.00;;;;4967898;28;118395;-66
2023/07/13 03:37:24;;;;;;;0.65;0.65;;;19.80;64.10;20.00;100355.00;;;;4966081;28;109945;-66
2023/07/13 03:39:50;;;;;;;0.80;0.75;;;19.90;64.40;20.10;100354.00;;;;4970181;28;96215;-66
2023/07/13 03:42:16;;;;;;;0.80;0.80;;;19.90;64.70;20.10;100360.00;;;;4975671;28;96518;-66
2023/07/13 03:44:45;;;;;;;1.38;1.10;;;19.90;64.80;20.10;100360.00;;;;4969172;28;94956;-66
2023/07/13 03:47:11;;;;;;;1.70;0.98;;;19.90;64.90;20.20;100362.00;;;;4968317;28;87831;-66
2023/07/13 03:49:37;;;;;;;1.25;0.73;;;20.00;65.00;20.20;100368.00;;;;4973007;28;87336;-66
2023/07/13 03:52:04;;;;;;;1.70;1.20;;;20.00;65.10;20.20;100369.00;;;;4967619;28;118024;-66
2023/07/13 03:54:32;;;;;;;3.17;1.05;;;20.10;65.20;20.20;100365.00;;;;4981843;28;107518;-66
2023/07/13 03:56:58;;;;;;;1.33;0.90;;;20.10;65.40;20.20;100372.00;;;;4969970;28;89032;-66
2023/07/13 03:59:24;;;;;;;1.40;1.00;;;20.10;65.50;20.20;100375.00;;;;4968467;28;108921;-66
2023/07/13 04:01:49;;;;;;;1.73;1.38;;;20.10;65.80;20.20;100369.00;;;;4965532;28;114815;-66
2023/07/13 04:04:15;;;;;;;0.82;0.82;;;20.10;65.80;20.20;100371.00;;;;4969551;28;90307;-66
2023/07/13 04:06:41;;;;;;;0.73;0.73;;;20.10;66.10;20.20;100370.00;;;;4971473;28;87889;-66
2023/07/13 04:09:06;;;;;;;1.40;0.90;;;20.00;66.30;20.20;100375.00;;;;4964207;28;109515;-66
2023/07/13 04:11:33;;;;;;;1.27;1.17;;;20.00;66.90;20.20;100381.00;;;;4966985;28;117844;-66
2023/07/13 04:14:00;;;;;;;1.05;0.85;;;20.00;67.50;20.20;100381.00;;;;4969795;28;88381;-67
2023/07/13 04:16:25;;;;;;;0.93;0.68;;;20.00;67.70;20.20;100385.00;;;;4969781;28;87791;-66
2023/07/13 04:18:54;;;;;;;1.20;0.93;;;20.00;67.40;20.20;100393.00;;;;4969120;28;87962;-66
2023/07/13 04:21:20;;;;;;;3.40;1.10;;;20.10;67.40;20.30;100384.00;;;;4963779;28;89987;-66
2023/07/13 04:23:46;;;;;;;1.40;1.05;;;20.10;67.20;20.30;100381.00;;;;4969776;28;89401;-66
2023/07/13 04:26:12;;;;;;;1.35;1.25;;;20.10;67.00;20.40;100393.00;;;;4970130;28;87993;-66
2023/07/13 04:28:38;;;;;;;2.05;1.10;;;20.20;67.00;20.40;100393.00;;;;4964431;28;99036;-67
2023/07/13 04:31:04;;;;;;;1.15;1.05;;;20.20;67.00;20.50;100396.00;;;;4965967;28;88624;-66
2023/07/13 04:33:29;;;;;;;1.42;1.17;;;20.30;67.10;20.50;100402.00;;;;4968406;28;116765;-67
2023/07/13 04:35:57;;;;;;;1.92;1.38;;;20.30;67.00;20.60;100409.00;;;;4965678;28;110115;-66
2023/07/13 04:38:27;;;;;;;1.30;1.13;;;20.40;67.00;20.60;100409.00;;;;4964967;28;87029;-66
2023/07/13 04:40:57;;;;;;;1.60;1.35;;;20.40;66.90;20.70;100389.00;;;;4966654;28;89034;-67
2023/07/13 04:43:24;;;;;;;1.67;0.90;;;20.50;66.70;20.70;100394.00;;;;4965015;28;88170;-66
2023/07/13 04:45:52;;;;;;;1.23;1.13;;;20.60;66.70;20.80;100395.00;;;;4963718;28;103453;-66
2023/07/13 04:48:18;;;;;;;2.00;1.00;;;20.60;66.70;20.80;100394.00;;;;4962929;28;102502;-66
2023/07/13 04:50:43;;;;;;;1.13;0.85;;;20.60;66.70;20.90;100391.00;;;;4968870;28;88974;-66
2023/07/13 04:53:10;;;;;;;1.30;1.17;;;20.70;66.70;21.00;100394.00;;;;4961872;28;116127;-66
2023/07/13 04:55:37;;;;;;;1.20;1.10;;;20.70;66.70;21.10;100394.00;;;;4963214;28;88035;-67
2023/07/13 04:58:03;;;;;;;1.48;1.27;;;20.80;66.80;21.10;100404.00;;;;4964696;28;97562;-66
2023/07/13 05:00:29;;;;;;;0.88;0.88;;;21.00;66.80;21.20;100409.00;;;;4966014;28;88052;-66
2023/07/13 05:02:57;;;;;;;2.97;1.17;;;21.00;66.70;21.40;100416.00;;;;4966992;28;115686;-67
2023/07/13 05:05:25;;;;;;;1.20;1.10;;;21.10;66.70;21.50;100407.00;;;;4966882;28;87796;-66
2023/07/13 05:07:51;;;;;;;0.95;0.95;;;21.20;66.60;21.60;100408.00;;;;4966734;28;100861;-67
2023/07/13 05:10:17;;;;;;;1.60;1.50;;;21.40;66.40;21.70;100413.00;;;;4966716;28;89735;-66
2023/07/13 05:12:43;;;;;;;1.95;1.05;;;21.50;66.20;21.90;100417.00;;;;4966079;28;89865;-66
2023/07/13 05:15:11;;;;;;;1.15;0.95;;;21.60;66.00;22.00;100420.00;;;;4968432;28;87856;-66
2023/07/13 05:17:38;;;;;;;2.25;1.20;;;21.70;65.80;22.00;100423.00;;;;4968136;28;95598;-66
2023/07/13 05:20:05;;;;;;;2.08;1.27;;;21.80;65.60;22.10;100436.00;;;;4967377;28;88794;-67
2023/07/13 05:22:31;;;;;;;1.10;0.98;;;21.90;65.50;22.10;100427.00;;;;4967164;28;88324;-66
2023/07/13 05:24:57;;;;;;;2.30;1.08;;;21.90;65.40;22.10;100432.00;;;;4968784;28;103860;-66
2023/07/13 05:27:23;;;;;;;1.38;1.20;;;21.90;65.40;22.10;100429.00;;;;4964411;28;99719;-66
2023/07/13 05:29:49;;;;;;;1.08;0.85;;;21.90;65.40;22.10;100426.00;;;;4966581;28;89220;-66
2023/07/13 05:32:15;;;;;;;1.63;1.50;;;21.90;65.30;22.10;100433.00;;;;4967888;28;89247;-66
2023/07/13 05:34:41;;;;;;;1.15;1.02;;;21.90;65.20;22.10;100441.00;;;;4966395;28;108678;-65
2023/07/13 05:37:08;;;;;;;1.20;0.77;;;21.90;65.20;22.10;100439.00;;;;4967738;28;108161;-66
2023/07/13 05:39:33;;;;;;;1.90;1.48;;;21.90;65.00;22.20;100449.00;;;;4967480;28;117648;-65
2023/07/13 05:41:59;;;;;;;1.77;1.25;;;21.90;64.90;22.20;100451.00;;;;4969004;28;117573;-65
2023/07/13 05:44:25;;;;;;;1.10;1.00;;;22.00;64.90;22.20;100448.00;;;;4967165;28;109249;-67
2023/07/13 05:46:50;;;;;;;1.30;1.20;;;22.00;64.70;22.20;100453.00;;;;4968169;28;107932;-66
2023/07/13 05:49:16;;;;;;;2.20;1.35;;;22.00;64.80;22.30;100449.00;;;;4965910;28;88419;-66
2023/07/13 05:51:42;;;;;;;1.73;1.17;;;22.00;64.70;22.20;100447.00;;;;4967048;28;106933;-67
2023/07/13 05:54:08;;;;;;;0.88;0.82;;;22.00;64.70;22.20;100449.00;;;;4966191;28;105344;-66
2023/07/13 05:56:33;;;;;;;1.15;1.05;;;22.00;64.70;22.20;100449.00;;;;4966449;28;93360;-66
2023/07/13 05:58:59;;;;;;;0.63;0.63;;;22.00;64.70;22.20;100462.00;;;;4966252;28;118025;-66
2023/07/13 06:01:25;;;;;;;1.33;1.23;;;22.00;64.80;22.10;100447.00;;;;4963523;28;117987;-66
2023/07/13 06:03:50;;;;;;;1.70;1.10;;;21.90;64.90;22.10;100451.00;;;;4966249;28;109103;-66
2023/07/13 06:06:16;;;;;;;4.43;1.45;;;21.90;65.00;22.00;100450.00;;;;4965802;28;87667;-66
2023/07/13 06:08:42;;;;;;;1.50;1.40;;;21.80;65.00;22.00;100449.00;;;;4967420;28;91078;-66
2023/07/13 06:11:19;;;;;;;1.38;1.13;;;21.80;65.40;22.10;100449.00;;;;4964191;28;117628;-66
2023/07/13 06:13:45;;;;;;;1.42;1.08;;;21.90;65.60;22.30;100443.00;;;;4965681;28;87906;-66
2023/07/13 06:16:12;;;;;;;1.70;1.00;;;22.00;65.60;22.50;100443.00;;;;4966612;28;86969;-65
2023/07/13 06:18:39;;;;;;;1.42;1.00;;;22.20;65.40;22.80;100440.00;;;;4970318;28;88054;-65
2023/07/13 06:21:31;;;;;;;1.55;1.23;;;22.40;65.00;23.00;100454.00;;;;4964924;28;88428;-65
2023/07/13 06:23:56;;;;;;;2.72;1.45;;;22.70;64.20;23.30;100452.00;;;;4962182;28;107649;-65
2023/07/13 06:26:22;;;;;;;1.67;1.05;;;23.00;63.60;23.60;100449.00;;;;4965206;28;108300;-66
2023/07/13 06:28:48;;;;;;;3.90;1.13;;;23.30;62.90;23.90;100452.00;;;;4967165;28;117050;-66
2023/07/13 06:31:15;;;;;;;0.82;0.82;;;23.60;62.10;24.20;100456.00;;;;4963885;28;116917;-65
2023/07/13 06:33:41;;;;;;;3.25;1.00;;;23.90;61.40;24.50;100452.00;;;;4968804;28;109886;-66
2023/07/13 06:36:08;;;;;;;2.05;0.80;;;24.20;60.70;24.80;100457.00;;;;4973994;28;95406;-66
2023/07/13 06:38:34;;;;;;;1.85;0.93;;;24.40;59.80;25.10;100451.00;;;;4969094;28;87970;-65
2023/07/13 06:40:59;;;;;;;1.08;0.57;;;24.70;59.40;25.30;100449.00;;;;4970695;28;93179;-67
2023/07/13 06:43:25;;;;;;;0.68;0.52;;;25.00;58.90;25.60;100451.00;;;;4966377;28;102895;-66
2023/07/13 06:45:54;;;;;;;1.05;0.85;;;25.20;57.60;25.80;100447.00;;;;4971296;28;87925;-66
2023/07/13 06:48:20;;;;;;;1.48;0.82;;;25.40;57.20;26.00;100458.00;;;;4970186;28;111448;-66
2023/07/13 06:50:48;;;;;;;0.65;0.38;;;25.70;56.80;26.20;100460.00;;;;4968336;28;119223;-67
2023/07/13 06:53:14;;;;;;;1.38;0.65;;;25.90;56.10;26.40;100460.00;;;;4971006;28;88030;-66
2023/07/13 06:55:40;;;;;;;1.05;0.90;;;26.10;55.60;26.60;100455.00;;;;4974337;28;108900;-66
2023/07/13 06:58:06;;;;;;;1.10;1.00;;;26.30;55.10;26.80;100463.00;;;;4972719;28;117243;-67
2023/07/13 07:00:32;;;;;;;0.90;0.65;;;26.50;54.90;27.00;100459.00;;;;4967710;28;88051;-66
2023/07/13 07:02:58;;;;;;;0.73;0.47;;;26.70;54.00;27.20;100471.00;;;;4969891;28;110907;-66
2023/07/13 07:05:24;;;;;;;2.78;0.68;;;26.90;53.10;27.30;100467.00;;;;4967894;28;109082;-66
2023/07/13 07:07:51;;;;;;;2.53;0.80;;;27.00;52.40;27.50;100470.00;;;;4969269;28;88300;-66
2023/07/13 07:10:18;;;;;;;1.02;0.98;;;27.20;52.20;27.60;100473.00;;;;4971021;28;96337;-66
2023/07/13 07:12:44;;;;;;;1.85;0.70;;;27.30;51.40;27.70;100474.00;;;;4965740;28;103164;-66
2023/07/13 07:15:09;;;;;;;0.82;0.40;;;27.40;50.80;27.80;100481.00;;;;4969917;28;95010;-66
2023/07/13 07:17:35;;;;;;;1.13;0.70;;;27.50;50.30;28.00;100476.00;;;;4967083;28;90245;-67
2023/07/13 07:20:01;;;;;;;0.55;0.55;;;27.70;49.80;28.30;100474.00;;;;4969226;28;88450;-67
2023/07/13 07:22:27;;;;;;;1.05;0.73;;;27.90;49.50;28.40;100485.00;;;;4967656;28;88058;-67
2023/07/13 07:24:53;;;;;;;0.57;0.57;;;28.10;49.20;28.60;100476.00;;;;4968786;28;88028;-67
2023/07/13 07:27:19;;;;;;;0.43;0.43;;;28.30;48.10;28.60;100478.00;;;;4968905;28;89253;-68
2023/07/13 07:29:45;;;;;;;1.08;0.50;;;28.40;48.20;28.80;100477.00;;;;4967148;28;109315;-67
2023/07/13 07:32:11;;;;;;;0.47;0.40;;;28.50;48.20;29.10;100478.00;;;;4968053;28;109770;-68
2023/07/13 07:34:36;;;;;;;0.75;0.75;;;28.70;47.60;29.00;100489.00;;;;4972266;28;109312;-67
2023/07/13 07:37:03;;;;;;;0.47;0.32;;;28.80;47.00;28.90;100484.00;;;;4968318;28;117591;-67
2023/07/13 07:39:29;;;;;;;0.73;0.68;;;28.70;46.90;28.90;100485.00;;;;4970617;28;88252;-67
2023/07/13 07:41:55;;;;;;;0.77;0.40;;;28.70;46.90;28.90;100482.00;;;;4967814;28;88046;-67
2023/07/13 07:44:21;;;;;;;2.58;0.52;;;28.70;46.90;29.00;100487.00;;;;4969010;28;108785;-68
2023/07/13 07:46:47;;;;;;;0.55;0.55;;;28.70;47.00;29.00;100494.00;;;;4967097;28;108383;-68
2023/07/13 07:49:13;;;;;;;0.77;0.70;;;28.70;46.80;29.00;100488.00;;;;4968403;28;117255;-67
2023/07/13 07:51:38;;;;;;;0.85;0.85;;;28.70;46.50;28.90;100482.00;;;;4967340;28;99047;-67
2023/07/13 07:54:05;;;;;;;2.13;1.17;;;28.70;46.80;28.80;100486.00;;;;4969575;28;107947;-67
2023/07/13 07:56:31;;;;;;;1.90;0.90;;;28.60;46.30;28.80;100482.00;;;;4973262;28;88357;-67
2023/07/13 07:58:57;;;;;;;1.00;0.68;;;28.60;46.60;29.00;100489.00;;;;4972979;28;89234;-67
2023/07/13 08:01:23;;;;;;;1.33;0.68;;;28.70;46.30;29.10;100491.00;;;;4969479;28;108796;-68
2023/07/13 08:03:49;;;;;;;0.93;0.68;;;28.80;46.00;28.90;100478.00;;;;4972784;28;98012;-67
2023/07/13 08:06:15;;;;;;;1.27;0.60;;;28.70;45.90;28.90;100495.00;;;;4967920;28;117780;-68
2023/07/13 08:08:40;;;;;;;1.17;0.70;;;28.50;46.30;29.00;100495.00;;;;4971212;28;88025;-67
2023/07/13 08:11:08;;;;;;;0.80;0.77;;;28.70;46.60;29.10;100492.00;;;;4971708;28;111041;-67
2023/07/13 08:13:34;;;;;;;0.70;0.70;;;28.80;46.70;29.40;100494.00;;;;4970731;28;87668;-68
2023/07/13 08:16:00;;;;;;;3.47;0.88;;;29.00;46.60;29.60;100496.00;;;;4966027;28;118662;-68
2023/07/13 08:18:28;;;;;;;1.25;0.55;;;29.20;46.20;29.90;100498.00;;;;4967375;28;88315;-68
2023/07/13 08:20:56;;;;;;;1.55;0.73;;;29.40;46.20;30.20;100502.00;;;;4968548;28;87747;-68
2023/07/13 08:23:22;;;;;;;1.25;0.65;;;29.60;46.00;30.50;100503.00;;;;4971116;28;87981;-68
2023/07/13 08:25:55;;;;;;;0.65;0.63;;;30.00;45.70;30.70;100507.00;;;;4968826;28;89069;-67
2023/07/13 08:28:22;;;;;;;0.50;0.50;;;30.20;45.10;30.90;100507.00;;;;4971923;28;117698;-67
2023/07/13 08:30:51;;;;;;;0.50;0.43;;;30.50;45.20;31.10;100504.00;;;;4967216;28;92024;-69
2023/07/13 08:33:23;;;;;;;1.40;0.50;;;30.60;44.70;31.30;100511.00;;;;4966988;28;87595;-68
2023/07/13 08:35:50;;;;;;;0.68;0.57;;;30.90;44.10;31.40;100511.00;;;;4967370;28;89022;-68
2023/07/13 08:38:17;;;;;;;0.85;0.68;;;31.00;43.70;31.50;100505.00;;;;4968943;28;87868;-67
2023/07/13 08:40:45;;;;;;;1.73;0.65;;;31.10;43.50;31.60;100508.00;;;;4967950;28;87962;-68
2023/07/13 08:43:19;;;;;;;0.60;0.60;;;31.20;43.30;31.60;100513.00;;;;4973570;28;87198;-68
2023/07/13 08:45:51;;;;;;;1.92;0.60;;;31.20;42.80;31.50;100505.00;;;;4964413;28;109164;-68
2023/07/13 08:49:00;;;;;;;1.98;0.80;;;31.20;42.90;31.20;100518.00;;;;4969119;28;87750;-68
2023/07/13 08:51:34;;;;;;;0.88;0.85;;;31.00;42.80;31.00;100509.00;;;;4969710;28;102957;-68
2023/07/13 08:54:05;;;;;;;1.60;0.75;;;30.80;42.70;30.60;100519.00;;;;4970893;28;87803;-68
2023/07/13 08:56:33;;;;;;;3.83;0.60;;;30.50;42.90;30.40;100515.00;;;;4972853;28;88976;-68
2023/07/13 08:59:09;;;;;;;1.33;0.65;;;30.20;43.20;30.20;100516.00;;;;4968660;28;87945;-69
2023/07/13 09:02:18;;;;;;;1.83;0.68;;;30.10;43.50;29.90;100514.00;;;;4970472;28;87921;-68
2023/07/13 09:05:11;;;;;;;0.75;0.70;;;29.80;43.80;29.70;100513.00;;;;4970243;28;87945;-68
2023/07/13 09:08:04;;;;;;;1.30;0.82;;;29.60;44.10;29.60;100519.00;;;;4962683;28;88740;-68
2023/07/13 09:10:39;;;;;;;0.40;0.40;;;29.40;44.40;29.50;100504.00;;;;4971357;28;94699;-68
2023/07/13 09:13:26;;;;;;;0.85;0.73;;;29.30;44.70;29.50;100515.00;;;;4972572;28;99852;-68
2023/07/13 09:15:51;;;;;;;1.85;0.93;;;29.30;44.90;29.50;100521.00;;;;4968456;28;88269;-68
2023/07/13 09:18:42;;;;;;;1.65;0.65;;;29.20;45.00;29.40;100508.00;;;;4964275;28;108483;-67
2023/07/13 09:21:29;;;;;;;1.52;0.50;;;29.20;44.90;29.50;100517.00;;;;4973200;28;89287;-67
2023/07/13 09:24:40;;;;;;;0.60;0.60;;;29.20;44.70;29.60;100512.00;;;;4964655;28;87973;-68
2023/07/13 09:27:24;;;;;;;0.65;0.65;;;29.20;44.60;29.70;100520.00;;;;4970929;28;87748;-66
2023/07/13 09:30:15;;;;;;;0.60;0.57;;;29.30;44.60;29.90;100520.00;;;;4969991;28;111752;-66
2023/07/13 09:32:47;;;;;;;4.53;0.70;;;29.40;44.50;30.20;100520.00;;;;4967737;28;88733;-67
2023/07/13 09:35:27;;;;;;;0.50;0.30;;;29.70;44.50;30.50;100527.00;;;;4972142;28;98797;-67
2023/07/13 09:38:01;;;;;;;1.00;0.75;;;30.00;44.20;30.80;100519.00;;;;4969395;28;87276;-68
2023/07/13 09:40:43;;;;;;;0.52;0.50;;;30.30;43.80;31.00;100531.00;;;;4970480;28;101980;-67
2023/07/13 09:43:14;;;;;;;1.15;0.57;;;30.50;43.20;31.20;100530.00;;;;4970952;28;88526;-69
2023/07/13 09:45:39;;;;;;;0.30;0.30;;;30.70;42.60;31.40;100528.00;;;;4968325;28;88990;-69
2023/07/13 09:48:12;;;;;;;0.90;0.75;;;30.90;42.10;31.60;100525.00;;;;4966128;28;88266;-69
2023/07/13 09:50:38;;;;;;;0.90;0.47;;;31.10;41.60;31.60;100525.00;;;;4972164;28;89092;-68
2023/07/13 09:53:03;;;;;;;0.88;0.63;;;31.20;41.60;31.80;100528.00;;;;4964062;28;88402;-68
2023/07/13 09:55:35;;;;;;;1.73;0.40;;;31.30;41.60;32.00;100519.00;;;;4967636;28;88117;-68
2023/07/13 09:58:12;;;;;;;1.00;0.40;;;31.50;41.60;32.40;100516.00;;;;4970126;28;87793;-69
2023/07/13 10:00:40;;;;;;;0.52;0.52;;;31.80;41.40;32.80;100513.00;;;;4964493;28;90468;-67
2023/07/13 10:03:23;;;;;;;0.70;0.38;;;32.20;41.30;33.30;100521.00;;;;4968124;28;88605;-69
2023/07/13 10:05:50;;;;;;;0.93;0.60;;;32.60;40.90;33.70;100519.00;;;;4967735;28;92597;-69
2023/07/13 10:08:32;;;;;;;0.40;0.40;;;33.10;40.10;34.00;100528.00;;;;4970146;28;87708;-67
2023/07/13 10:11:16;;;;;;;2.58;0.73;;;33.40;39.30;34.10;100535.00;;;;4970346;28;89079;-68
2023/07/13 10:13:50;;;;;;;0.90;0.57;;;33.50;38.70;33.80;100533.00;;;;4970145;28;100184;-68
2023/07/13 10:16:16;;;;;;;0.68;0.60;;;33.40;38.50;33.40;100538.00;;;;4974803;28;87965;-67
2023/07/13 10:19:10;;;;;;;1.00;0.70;;;33.10;38.50;33.00;100548.00;;;;4976105;28;88591;-67
2023/07/13 10:21:48;;;;;;;0.60;0.40;;;32.80;39.00;32.50;100548.00;;;;4979470;28;87885;-68
2023/07/13 10:24:27;;;;;;;0.73;0.73;;;32.40;39.50;32.10;100552.00;;;;4983501;28;88079;-67
2023/07/13 10:27:09;;;;;;;1.40;0.52;;;31.90;40.00;31.70;100555.00;;;;4966125;28;87746;-67
2023/07/13 10:29:44;;;;;;;0.55;0.55;;;31.50;40.30;31.40;100555.00;;;;4971624;28;87145;-67
2023/07/13 10:32:12;;;;;;;0.82;0.63;;;31.10;41.40;31.00;100553.00;;;;4974884;28;106181;-66
2023/07/13 10:34:39;;;;;;;0.52;0.45;;;30.90;41.30;30.70;100555.00;;;;4967933;28;88099;-68
2023/07/13 10:37:16;;;;;;;1.00;0.75;;;30.50;41.50;30.40;100557.00;;;;4971696;28;102370;-67
2023/07/13 10:39:42;;;;;;;0.57;0.55;;;30.20;41.70;30.20;100553.00;;;;4968548;28;87933;-68
2023/07/13 10:42:25;;;;;;;0.40;0.40;;;30.00;41.80;29.90;100561.00;;;;4953617;28;116857;-66
2023/07/13 10:44:50;;;;;;;1.20;0.70;;;29.70;42.00;29.80;100560.00;;;;4966793;28;88017;-68
2023/07/13 10:47:18;;;;;;;1.85;0.50;;;29.50;42.30;29.60;100561.00;;;;4967220;28;109292;-67
2023/07/13 10:49:44;;;;;;;0.65;0.65;;;29.40;42.70;29.50;100562.00;;;;4969404;28;89531;-66
2023/07/13 10:52:50;;;;;;;0.45;0.40;;;29.20;43.30;29.20;100563.00;;;;4966935;28;116143;-67